NGN2603 EDDS-EDXW
Flight info
| Callsign | NGN2603 |
|---|---|
| Flight time | 1h 6m |
| Altitude | 33000 |
| Route | OKIBA4B OKIBA N851 RIMKI Z99 LOHRE DCT MASEK/N0417F350 DCT ELNAT/N0411F340 DCT ELSOB Y348 OMWEG DCT BADOS DCT OLDIP |
| Aircraft | A320/M-SDE3FGHIRWY/LB1 |
Departure
| Time | 2026-05-05 17:15 |
|---|---|
| Airport | Stuttgart Airport (EDDS) |
Arrival
| Time | 2026-05-05 18:21 |
|---|---|
| Airport | Westerland Sylt Airport (EDXW) |
| Time | Latitude | Longitude | Altitude | Speed | Heading |
|---|---|---|---|---|---|
| 2026-05-05 16:33 | 48.68924 | 9.19581 | 1315 ft | 0 kts | 344° |
| 2026-05-05 16:59 | 48.68911 | 9.19587 | 1314 ft | 4 kts | 344° |
| 2026-05-05 16:59 | 48.68885 | 9.19598 | 1312 ft | 3 kts | 344° |
| 2026-05-05 16:59 | 48.68864 | 9.19604 | 1310 ft | 4 kts | 17° |
| 2026-05-05 17:00 | 48.68846 | 9.19582 | 1310 ft | 4 kts | 66° |
| 2026-05-05 17:00 | 48.68842 | 9.19568 | 1310 ft | 1 kts | 74° |
| 2026-05-05 17:04 | 48.68843 | 9.19574 | 1310 ft | 1 kts | 74° |
| 2026-05-05 17:04 | 48.68846 | 9.19591 | 1310 ft | 2 kts | 74° |
| 2026-05-05 17:04 | 48.68851 | 9.19619 | 1309 ft | 3 kts | 74° |
| 2026-05-05 17:05 | 48.68858 | 9.19653 | 1309 ft | 4 kts | 74° |
| 2026-05-05 17:05 | 48.68866 | 9.19697 | 1308 ft | 5 kts | 74° |
| 2026-05-05 17:05 | 48.68877 | 9.19759 | 1306 ft | 9 kts | 74° |
| 2026-05-05 17:05 | 48.68881 | 9.19867 | 1302 ft | 13 kts | 121° |
| 2026-05-05 17:06 | 48.68820 | 9.19971 | 1295 ft | 16 kts | 75° |
| 2026-05-05 17:06 | 48.68860 | 9.20140 | 1292 ft | 20 kts | 75° |
| 2026-05-05 17:06 | 48.68898 | 9.20344 | 1287 ft | 21 kts | 73° |
| 2026-05-05 17:06 | 48.68939 | 9.20564 | 1281 ft | 24 kts | 74° |
| 2026-05-05 17:07 | 48.68978 | 9.20765 | 1279 ft | 21 kts | 74° |
| 2026-05-05 17:07 | 48.69015 | 9.20961 | 1272 ft | 19 kts | 74° |
| 2026-05-05 17:07 | 48.69055 | 9.21169 | 1268 ft | 22 kts | 73° |
| 2026-05-05 17:07 | 48.69093 | 9.21372 | 1270 ft | 19 kts | 74° |
| 2026-05-05 17:08 | 48.69134 | 9.21587 | 1266 ft | 23 kts | 73° |
| 2026-05-05 17:08 | 48.69174 | 9.21800 | 1254 ft | 19 kts | 75° |
| 2026-05-05 17:08 | 48.69208 | 9.21987 | 1256 ft | 15 kts | 74° |
| 2026-05-05 17:08 | 48.69242 | 9.22159 | 1249 ft | 20 kts | 74° |
| 2026-05-05 17:09 | 48.69285 | 9.22380 | 1250 ft | 24 kts | 73° |
| 2026-05-05 17:09 | 48.69330 | 9.22616 | 1234 ft | 23 kts | 75° |
| 2026-05-05 17:09 | 48.69371 | 9.22842 | 1229 ft | 23 kts | 74° |
| 2026-05-05 17:09 | 48.69417 | 9.23082 | 1224 ft | 19 kts | 74° |
| 2026-05-05 17:10 | 48.69458 | 9.23294 | 1220 ft | 23 kts | 74° |
| 2026-05-05 17:10 | 48.69499 | 9.23511 | 1215 ft | 22 kts | 74° |
| 2026-05-05 17:10 | 48.69544 | 9.23750 | 1210 ft | 25 kts | 73° |
| 2026-05-05 17:10 | 48.69588 | 9.23978 | 1205 ft | 17 kts | 74° |
| 2026-05-05 17:11 | 48.69610 | 9.24156 | 1200 ft | 18 kts | 103° |
| 2026-05-05 17:11 | 48.69578 | 9.24253 | 1196 ft | 10 kts | 122° |
| 2026-05-05 17:11 | 48.69547 | 9.24294 | 1193 ft | 1 kts | 154° |
| 2026-05-05 17:11 | 48.69533 | 9.24303 | 1192 ft | 1 kts | 158° |
| 2026-05-05 17:12 | 48.69514 | 9.24314 | 1191 ft | 0 kts | 161° |
| 2026-05-05 17:13 | 48.69510 | 9.24315 | 1191 ft | 2 kts | 161° |
| 2026-05-05 17:13 | 48.69488 | 9.24327 | 1190 ft | 5 kts | 162° |
| 2026-05-05 17:13 | 48.69455 | 9.24336 | 1190 ft | 4 kts | 179° |
| 2026-05-05 17:13 | 48.69430 | 9.24329 | 1190 ft | 7 kts | 194° |
| 2026-05-05 17:14 | 48.69375 | 9.24240 | 1192 ft | 12 kts | 247° |
| 2026-05-05 17:14 | 48.69330 | 9.24021 | 1197 ft | 51 kts | 253° |
| 2026-05-05 17:14 | 48.69163 | 9.23134 | 1215 ft | 120 kts | 254° |
| 2026-05-05 17:14 | 48.68888 | 9.21655 | 1294 ft | 167 kts | 253° |
| 2026-05-05 17:15 | 48.68552 | 9.19969 | 1986 ft | 166 kts | 254° |
| 2026-05-05 17:15 | 48.68229 | 9.18285 | 2760 ft | 171 kts | 253° |
| 2026-05-05 17:15 | 48.67878 | 9.16460 | 3172 ft | 192 kts | 253° |
| 2026-05-05 17:15 | 48.67479 | 9.14416 | 3531 ft | 213 kts | 253° |
| 2026-05-05 17:16 | 48.67051 | 9.12165 | 4122 ft | 228 kts | 258° |
| 2026-05-05 17:16 | 48.67147 | 9.09757 | 4778 ft | 238 kts | 289° |
| 2026-05-05 17:16 | 48.68152 | 9.07724 | 5496 ft | 245 kts | 310° |
| 2026-05-05 17:16 | 48.69582 | 9.06246 | 6405 ft | 262 kts | 333° |
| 2026-05-05 17:17 | 48.71386 | 9.05335 | 7003 ft | 280 kts | 338° |
| 2026-05-05 17:17 | 48.73278 | 9.04470 | 7843 ft | 289 kts | 343° |
| 2026-05-05 17:17 | 48.75315 | 9.04349 | 8751 ft | 300 kts | 6° |
| 2026-05-05 17:17 | 48.77322 | 9.05364 | 9644 ft | 310 kts | 28° |
| 2026-05-05 17:18 | 48.79018 | 9.07470 | 10226 ft | 327 kts | 51° |
| 2026-05-05 17:18 | 48.80403 | 9.10345 | 10622 ft | 347 kts | 55° |
| 2026-05-05 17:18 | 48.81800 | 9.13384 | 11364 ft | 354 kts | 56° |
| 2026-05-05 17:18 | 48.83263 | 9.16341 | 12151 ft | 359 kts | 46° |
| 2026-05-05 17:19 | 48.85253 | 9.18645 | 12949 ft | 362 kts | 25° |
| 2026-05-05 17:19 | 48.87637 | 9.19818 | 13732 ft | 362 kts | 7° |
| 2026-05-05 17:19 | 48.90134 | 9.20421 | 14458 ft | 365 kts | 6° |
| 2026-05-05 17:19 | 48.92655 | 9.21003 | 15167 ft | 368 kts | 6° |
| 2026-05-05 17:20 | 48.95199 | 9.21586 | 15893 ft | 371 kts | 7° |
| 2026-05-05 17:20 | 48.97756 | 9.22181 | 16640 ft | 374 kts | 7° |
| 2026-05-05 17:20 | 49.00345 | 9.22788 | 17354 ft | 378 kts | 7° |
| 2026-05-05 17:20 | 49.02953 | 9.23404 | 18050 ft | 381 kts | 8° |
| 2026-05-05 17:21 | 49.05589 | 9.24033 | 18650 ft | 385 kts | 8° |
| 2026-05-05 17:21 | 49.08286 | 9.24679 | 19262 ft | 389 kts | 8° |
| 2026-05-05 17:21 | 49.10968 | 9.25324 | 19853 ft | 392 kts | 8° |
| 2026-05-05 17:22 | 49.16399 | 9.26622 | 21046 ft | 399 kts | 8° |
| 2026-05-05 17:22 | 49.19153 | 9.27280 | 21609 ft | 402 kts | 9° |
| 2026-05-05 17:22 | 49.21885 | 9.27936 | 22161 ft | 405 kts | 9° |
| 2026-05-05 17:22 | 49.24618 | 9.28595 | 22698 ft | 408 kts | 9° |
| 2026-05-05 17:23 | 49.26899 | 9.29147 | 23142 ft | 411 kts | 9° |
| 2026-05-05 17:23 | 49.29738 | 9.29834 | 23646 ft | 414 kts | 9° |
| 2026-05-05 17:23 | 49.32593 | 9.30524 | 24099 ft | 417 kts | 9° |
| 2026-05-05 17:23 | 49.35469 | 9.31216 | 24550 ft | 420 kts | 9° |
| 2026-05-05 17:24 | 49.38396 | 9.31920 | 25003 ft | 422 kts | 10° |
| 2026-05-05 17:24 | 49.41308 | 9.32621 | 25479 ft | 424 kts | 10° |
| 2026-05-05 17:24 | 49.44226 | 9.33322 | 25926 ft | 426 kts | 10° |
| 2026-05-05 17:24 | 49.47169 | 9.34032 | 26353 ft | 429 kts | 10° |
| 2026-05-05 17:25 | 49.50128 | 9.34751 | 26774 ft | 432 kts | 10° |
| 2026-05-05 17:25 | 49.52097 | 9.35230 | 27046 ft | 434 kts | 10° |
| 2026-05-05 17:25 | 49.56102 | 9.36205 | 27599 ft | 437 kts | 10° |
| 2026-05-05 17:25 | 49.59118 | 9.36939 | 27993 ft | 440 kts | 10° |
| 2026-05-05 17:26 | 49.62150 | 9.37675 | 28389 ft | 443 kts | 11° |
| 2026-05-05 17:26 | 49.65202 | 9.38417 | 28778 ft | 446 kts | 11° |
| 2026-05-05 17:26 | 49.68275 | 9.39165 | 29160 ft | 448 kts | 11° |
| 2026-05-05 17:26 | 49.71369 | 9.39920 | 29544 ft | 451 kts | 11° |
| 2026-05-05 17:27 | 49.74480 | 9.40682 | 29912 ft | 454 kts | 11° |
| 2026-05-05 17:27 | 49.77607 | 9.41451 | 30223 ft | 457 kts | 11° |
| 2026-05-05 17:27 | 49.80757 | 9.42225 | 30527 ft | 459 kts | 11° |
| 2026-05-05 17:27 | 49.83918 | 9.43002 | 30804 ft | 462 kts | 11° |
| 2026-05-05 17:28 | 49.87111 | 9.43791 | 31089 ft | 465 kts | 11° |
| 2026-05-05 17:28 | 49.90318 | 9.44585 | 31379 ft | 468 kts | 11° |
| 2026-05-05 17:28 | 49.93537 | 9.45384 | 31733 ft | 469 kts | 11° |
| 2026-05-05 17:28 | 49.96751 | 9.46182 | 32134 ft | 468 kts | 11° |
| 2026-05-05 17:29 | 49.99966 | 9.46980 | 32532 ft | 468 kts | 11° |
| 2026-05-05 17:29 | 50.03187 | 9.47776 | 32780 ft | 469 kts | 11° |
| 2026-05-05 17:29 | 50.06377 | 9.48562 | 32823 ft | 457 kts | 11° |
| 2026-05-05 17:30 | 50.12564 | 9.49809 | 32822 ft | 444 kts | 8° |
| 2026-05-05 17:30 | 50.18710 | 9.50734 | 32824 ft | 443 kts | 7° |
| 2026-05-05 17:31 | 50.24845 | 9.51653 | 32821 ft | 443 kts | 8° |
| 2026-05-05 17:31 | 50.30977 | 9.52679 | 32816 ft | 444 kts | 7° |
| 2026-05-05 17:32 | 50.37112 | 9.53739 | 32813 ft | 444 kts | 7° |
| 2026-05-05 17:32 | 50.43249 | 9.54791 | 32808 ft | 443 kts | 7° |
| 2026-05-05 17:33 | 50.49383 | 9.55830 | 32798 ft | 443 kts | 7° |
| 2026-05-05 17:33 | 50.55525 | 9.56872 | 32790 ft | 444 kts | 7° |
| 2026-05-05 17:34 | 50.61672 | 9.57914 | 32788 ft | 445 kts | 7° |
| 2026-05-05 17:34 | 50.67782 | 9.58950 | 32784 ft | 445 kts | 7° |
| 2026-05-05 17:35 | 50.73942 | 9.60012 | 32789 ft | 445 kts | 7° |
| 2026-05-05 17:35 | 50.80089 | 9.61179 | 32790 ft | 445 kts | 8° |
| 2026-05-05 17:36 | 50.86241 | 9.62409 | 32792 ft | 445 kts | 8° |
| 2026-05-05 17:36 | 50.92389 | 9.63622 | 32790 ft | 445 kts | 8° |
| 2026-05-05 17:37 | 50.98538 | 9.64816 | 32789 ft | 445 kts | 7° |
| 2026-05-05 17:37 | 51.04684 | 9.66007 | 32788 ft | 445 kts | 7° |
| 2026-05-05 17:38 | 51.10835 | 9.67206 | 32786 ft | 445 kts | 7° |
| 2026-05-05 17:38 | 51.16982 | 9.68415 | 32790 ft | 445 kts | 7° |
| 2026-05-05 17:39 | 51.23157 | 9.68999 | 32792 ft | 445 kts | 357° |
| 2026-05-05 17:39 | 51.29357 | 9.68722 | 32788 ft | 446 kts | 357° |
| 2026-05-05 17:40 | 51.35560 | 9.68444 | 32791 ft | 447 kts | 357° |
| 2026-05-05 17:40 | 51.41776 | 9.68181 | 32794 ft | 446 kts | 356° |
| 2026-05-05 17:41 | 51.47986 | 9.67906 | 32799 ft | 447 kts | 356° |
| 2026-05-05 17:41 | 51.54200 | 9.67634 | 32803 ft | 447 kts | 356° |
| 2026-05-05 17:42 | 51.60412 | 9.67364 | 32826 ft | 446 kts | 356° |
| 2026-05-05 17:42 | 51.66625 | 9.67094 | 32819 ft | 447 kts | 356° |
| 2026-05-05 17:43 | 51.72839 | 9.66821 | 32832 ft | 446 kts | 356° |
| 2026-05-05 17:43 | 51.79044 | 9.66542 | 32834 ft | 446 kts | 356° |
| 2026-05-05 17:44 | 51.85247 | 9.66264 | 32836 ft | 446 kts | 356° |
| 2026-05-05 17:44 | 51.91449 | 9.65995 | 32838 ft | 446 kts | 356° |
| 2026-05-05 17:45 | 51.97647 | 9.65725 | 32837 ft | 446 kts | 356° |
| 2026-05-05 17:45 | 52.03845 | 9.65447 | 32849 ft | 445 kts | 355° |
| 2026-05-05 17:46 | 52.10040 | 9.65159 | 32848 ft | 445 kts | 355° |
| 2026-05-05 17:46 | 52.16235 | 9.64876 | 32864 ft | 445 kts | 355° |
| 2026-05-05 17:47 | 52.22429 | 9.64601 | 32871 ft | 445 kts | 355° |
| 2026-05-05 17:47 | 52.28618 | 9.64324 | 32872 ft | 445 kts | 355° |
| 2026-05-05 17:48 | 52.34800 | 9.64051 | 32867 ft | 445 kts | 355° |
| 2026-05-05 17:48 | 52.40985 | 9.63774 | 32877 ft | 444 kts | 354° |
| 2026-05-05 17:49 | 52.47163 | 9.63489 | 32868 ft | 444 kts | 354° |
| 2026-05-05 17:49 | 52.53341 | 9.63207 | 32869 ft | 444 kts | 354° |
| 2026-05-05 17:50 | 52.59515 | 9.62931 | 32867 ft | 444 kts | 354° |
| 2026-05-05 17:50 | 52.65691 | 9.62639 | 32874 ft | 444 kts | 353° |
| 2026-05-05 17:51 | 52.71863 | 9.62344 | 32875 ft | 444 kts | 354° |
| 2026-05-05 17:51 | 52.77993 | 9.62064 | 32881 ft | 444 kts | 354° |
| 2026-05-05 17:52 | 52.84161 | 9.61787 | 32883 ft | 444 kts | 354° |
| 2026-05-05 17:52 | 52.90331 | 9.61502 | 32902 ft | 443 kts | 353° |
| 2026-05-05 17:53 | 52.96496 | 9.61214 | 32898 ft | 443 kts | 353° |
| 2026-05-05 17:53 | 53.02659 | 9.60923 | 32893 ft | 443 kts | 353° |
| 2026-05-05 17:54 | 53.08858 | 9.60624 | 32892 ft | 443 kts | 353° |
| 2026-05-05 17:54 | 53.13974 | 9.60382 | 32884 ft | 443 kts | 353° |
| 2026-05-05 17:55 | 53.20132 | 9.60095 | 32892 ft | 443 kts | 353° |
| 2026-05-05 17:55 | 53.26285 | 9.59814 | 32596 ft | 440 kts | 353° |
| 2026-05-05 17:55 | 53.29335 | 9.59674 | 32266 ft | 436 kts | 353° |
| 2026-05-05 17:56 | 53.32349 | 9.59533 | 31733 ft | 433 kts | 353° |
| 2026-05-05 17:56 | 53.35359 | 9.59392 | 31223 ft | 431 kts | 353° |
| 2026-05-05 17:56 | 53.38344 | 9.59249 | 30714 ft | 428 kts | 353° |
| 2026-05-05 17:56 | 53.41313 | 9.59106 | 30213 ft | 425 kts | 353° |
| 2026-05-05 17:57 | 53.44251 | 9.58967 | 29711 ft | 422 kts | 353° |
| 2026-05-05 17:57 | 53.47175 | 9.58831 | 29223 ft | 417 kts | 354° |
| 2026-05-05 17:57 | 53.50053 | 9.58698 | 28769 ft | 411 kts | 354° |
| 2026-05-05 17:57 | 53.52890 | 9.58563 | 28314 ft | 406 kts | 354° |
| 2026-05-05 17:58 | 53.55695 | 9.58428 | 27861 ft | 401 kts | 354° |
| 2026-05-05 17:58 | 53.58472 | 9.58293 | 27407 ft | 397 kts | 354° |
| 2026-05-05 17:58 | 53.61179 | 9.58162 | 26968 ft | 393 kts | 354° |
| 2026-05-05 17:58 | 53.63937 | 9.58030 | 26496 ft | 390 kts | 353° |
| 2026-05-05 17:59 | 53.66611 | 9.57658 | 26042 ft | 382 kts | 346° |
| 2026-05-05 17:59 | 53.69234 | 9.57035 | 25595 ft | 379 kts | 347° |
| 2026-05-05 17:59 | 53.71835 | 9.56425 | 25146 ft | 376 kts | 347° |
| 2026-05-05 17:59 | 53.74420 | 9.55823 | 24681 ft | 374 kts | 347° |
| 2026-05-05 18:00 | 53.76962 | 9.55233 | 24225 ft | 372 kts | 347° |
| 2026-05-05 18:00 | 53.79520 | 9.54642 | 23757 ft | 371 kts | 347° |
| 2026-05-05 18:00 | 53.82106 | 9.54046 | 23241 ft | 370 kts | 348° |
| 2026-05-05 18:00 | 53.84614 | 9.53464 | 22769 ft | 367 kts | 348° |
| 2026-05-05 18:01 | 53.87162 | 9.52868 | 22331 ft | 364 kts | 347° |
| 2026-05-05 18:01 | 53.89666 | 9.52277 | 21854 ft | 362 kts | 347° |
| 2026-05-05 18:01 | 53.92113 | 9.51701 | 21404 ft | 359 kts | 347° |
| 2026-05-05 18:01 | 53.94579 | 9.51120 | 20975 ft | 357 kts | 347° |
| 2026-05-05 18:02 | 53.97031 | 9.50545 | 20537 ft | 355 kts | 347° |
| 2026-05-05 18:02 | 53.99451 | 9.49873 | 20102 ft | 349 kts | 341° |
| 2026-05-05 18:02 | 54.01706 | 9.48491 | 19666 ft | 341 kts | 329° |
| 2026-05-05 18:02 | 54.03751 | 9.46528 | 19250 ft | 337 kts | 325° |
| 2026-05-05 18:03 | 54.05773 | 9.44530 | 18827 ft | 335 kts | 326° |
| 2026-05-05 18:03 | 54.07787 | 9.42547 | 18416 ft | 333 kts | 326° |
| 2026-05-05 18:03 | 54.09785 | 9.40577 | 17971 ft | 332 kts | 326° |
| 2026-05-05 18:03 | 54.11775 | 9.38612 | 17549 ft | 329 kts | 326° |
| 2026-05-05 18:04 | 54.13748 | 9.36664 | 17163 ft | 326 kts | 326° |
| 2026-05-05 18:04 | 54.15707 | 9.34732 | 16749 ft | 324 kts | 325° |
| 2026-05-05 18:04 | 54.17650 | 9.32814 | 16354 ft | 322 kts | 326° |
| 2026-05-05 18:04 | 54.19581 | 9.30905 | 15975 ft | 319 kts | 326° |
| 2026-05-05 18:05 | 54.21463 | 9.29042 | 15596 ft | 306 kts | 326° |
| 2026-05-05 18:05 | 54.23283 | 9.27244 | 15243 ft | 301 kts | 326° |
| 2026-05-05 18:05 | 54.25095 | 9.25443 | 14873 ft | 301 kts | 326° |
| 2026-05-05 18:05 | 54.26902 | 9.23640 | 14514 ft | 301 kts | 326° |
| 2026-05-05 18:06 | 54.28708 | 9.21835 | 14155 ft | 301 kts | 326° |
| 2026-05-05 18:06 | 54.29905 | 9.20636 | 13912 ft | 301 kts | 326° |
| 2026-05-05 18:06 | 54.32322 | 9.18212 | 13395 ft | 301 kts | 326° |
| 2026-05-05 18:06 | 54.34127 | 9.16407 | 13009 ft | 300 kts | 326° |
| 2026-05-05 18:07 | 54.35925 | 9.14611 | 12625 ft | 299 kts | 326° |
| 2026-05-05 18:07 | 54.37584 | 9.12529 | 12246 ft | 294 kts | 313° |
| 2026-05-05 18:07 | 54.39017 | 9.10057 | 11871 ft | 292 kts | 311° |
| 2026-05-05 18:07 | 54.40440 | 9.07584 | 11481 ft | 291 kts | 312° |
| 2026-05-05 18:08 | 54.41866 | 9.05108 | 11105 ft | 291 kts | 312° |
| 2026-05-05 18:08 | 54.43285 | 9.02645 | 10706 ft | 290 kts | 312° |
| 2026-05-05 18:08 | 54.44703 | 9.00188 | 10327 ft | 289 kts | 312° |
| 2026-05-05 18:08 | 54.46118 | 8.97730 | 9916 ft | 289 kts | 312° |
| 2026-05-05 18:09 | 54.47515 | 8.95301 | 9565 ft | 280 kts | 313° |
| 2026-05-05 18:09 | 54.48860 | 8.92961 | 9095 ft | 270 kts | 313° |
| 2026-05-05 18:09 | 54.50149 | 8.90715 | 8699 ft | 258 kts | 313° |
| 2026-05-05 18:09 | 54.51388 | 8.88556 | 8329 ft | 252 kts | 313° |
| 2026-05-05 18:10 | 54.52615 | 8.86410 | 7939 ft | 251 kts | 313° |
| 2026-05-05 18:10 | 54.53837 | 8.84273 | 7597 ft | 250 kts | 313° |
| 2026-05-05 18:10 | 54.55049 | 8.82152 | 7227 ft | 247 kts | 314° |
| 2026-05-05 18:10 | 54.56253 | 8.80043 | 6826 ft | 248 kts | 314° |
| 2026-05-05 18:11 | 54.57464 | 8.77916 | 6428 ft | 249 kts | 315° |
| 2026-05-05 18:11 | 54.58678 | 8.75781 | 5995 ft | 250 kts | 316° |
| 2026-05-05 18:11 | 54.59894 | 8.73643 | 5557 ft | 250 kts | 316° |
| 2026-05-05 18:11 | 54.61110 | 8.71506 | 5236 ft | 245 kts | 316° |
| 2026-05-05 18:12 | 54.62323 | 8.69673 | 5172 ft | 220 kts | 327° |
| 2026-05-05 18:12 | 54.63525 | 8.68219 | 5108 ft | 202 kts | 327° |
| 2026-05-05 18:12 | 54.64613 | 8.66889 | 5044 ft | 181 kts | 327° |
| 2026-05-05 18:12 | 54.65593 | 8.65686 | 4982 ft | 164 kts | 328° |
| 2026-05-05 18:13 | 54.66486 | 8.64589 | 4902 ft | 151 kts | 329° |
| 2026-05-05 18:13 | 54.67336 | 8.63549 | 4826 ft | 150 kts | 330° |
| 2026-05-05 18:13 | 54.68184 | 8.62515 | 4763 ft | 149 kts | 330° |
| 2026-05-05 18:13 | 54.69016 | 8.61498 | 4709 ft | 148 kts | 328° |
| 2026-05-05 18:14 | 54.69857 | 8.60471 | 4641 ft | 148 kts | 330° |
| 2026-05-05 18:14 | 54.70698 | 8.59442 | 4571 ft | 147 kts | 328° |
| 2026-05-05 18:14 | 54.71532 | 8.58421 | 4527 ft | 147 kts | 328° |
| 2026-05-05 18:14 | 54.72364 | 8.57402 | 4397 ft | 146 kts | 328° |
| 2026-05-05 18:15 | 54.73194 | 8.56387 | 4226 ft | 147 kts | 330° |
| 2026-05-05 18:15 | 54.74024 | 8.55369 | 4036 ft | 145 kts | 328° |
| 2026-05-05 18:15 | 54.74848 | 8.54358 | 3842 ft | 145 kts | 329° |
| 2026-05-05 18:15 | 54.75669 | 8.53352 | 3647 ft | 144 kts | 331° |
| 2026-05-05 18:16 | 54.76488 | 8.52347 | 3459 ft | 144 kts | 331° |
| 2026-05-05 18:16 | 54.77304 | 8.51344 | 3261 ft | 144 kts | 328° |
| 2026-05-05 18:16 | 54.78120 | 8.50342 | 3064 ft | 144 kts | 331° |
| 2026-05-05 18:16 | 54.78930 | 8.49345 | 2867 ft | 142 kts | 329° |
| 2026-05-05 18:17 | 54.79733 | 8.48358 | 2660 ft | 140 kts | 328° |
| 2026-05-05 18:17 | 54.80521 | 8.47388 | 2487 ft | 137 kts | 331° |
| 2026-05-05 18:17 | 54.81292 | 8.46439 | 2297 ft | 134 kts | 332° |
| 2026-05-05 18:17 | 54.82045 | 8.45510 | 2114 ft | 133 kts | 329° |
| 2026-05-05 18:18 | 54.82791 | 8.44592 | 1942 ft | 129 kts | 330° |
| 2026-05-05 18:18 | 54.83510 | 8.43695 | 1774 ft | 126 kts | 330° |
| 2026-05-05 18:18 | 54.84212 | 8.42774 | 1576 ft | 126 kts | 329° |
| 2026-05-05 18:18 | 54.84908 | 8.41872 | 1391 ft | 124 kts | 332° |
| 2026-05-05 18:19 | 54.85627 | 8.41041 | 1222 ft | 124 kts | 331° |
| 2026-05-05 18:19 | 54.86322 | 8.40164 | 1043 ft | 123 kts | 329° |
| 2026-05-05 18:19 | 54.87018 | 8.39309 | 857 ft | 122 kts | 330° |
| 2026-05-05 18:19 | 54.87714 | 8.38482 | 692 ft | 120 kts | 329° |
| 2026-05-05 18:20 | 54.88401 | 8.37665 | 568 ft | 119 kts | 329° |
| 2026-05-05 18:20 | 54.89069 | 8.36817 | 397 ft | 119 kts | 328° |
| 2026-05-05 18:20 | 54.89741 | 8.35975 | 234 ft | 118 kts | 328° |
| 2026-05-05 18:20 | 54.90419 | 8.35172 | 88 ft | 117 kts | 327° |
| 2026-05-05 18:21 | 54.90987 | 8.34460 | 55 ft | 66 kts | 323° |
| 2026-05-05 18:21 | 54.91213 | 8.34183 | 58 ft | 33 kts | 326° |
| 2026-05-05 18:21 | 54.91298 | 8.34001 | 56 ft | 17 kts | 254° |
| 2026-05-05 18:21 | 54.91242 | 8.33809 | 50 ft | 18 kts | 237° |
| 2026-05-05 18:22 | 54.91180 | 8.33629 | 55 ft | 17 kts | 242° |
| 2026-05-05 18:22 | 54.91126 | 8.33455 | 52 ft | 16 kts | 242° |
| 2026-05-05 18:22 | 54.91077 | 8.33303 | 53 ft | 13 kts | 252° |
| 2026-05-05 18:22 | 54.91113 | 8.33186 | 56 ft | 12 kts | 340° |
| 2026-05-05 18:23 | 54.91204 | 8.33171 | 58 ft | 14 kts | 1° |
| 2026-05-05 18:23 | 54.91287 | 8.33190 | 56 ft | 8 kts | 8° |
| 2026-05-05 18:23 | 54.91310 | 8.33128 | 53 ft | 5 kts | 270° |
| 2026-05-05 18:23 | 54.91311 | 8.33110 | 58 ft | 0 kts | 275° |